Shoshone, CA (92384)

3:40 AM PDT on July 31, 2014 (GMT -0700)
Golden Springs Ranch #8 (KNVPAHRU5) Elev 2546 ft | 36.22 °N, 116.09 °W | Change Station

Current weather conditions updated 4 minutes ago

Clear
Clear
82.3 °F
Feels Like 82 °F
N
7.2
Wind Variable Wind from NNW
Gusts 9.4 mph

Today is forecast to be nearly the same temperature as yesterday.

Today
High -- | Low -- °F
--% Chance of Precip.
Yesterday
High -- | Low -- °F
Precip. -- in
5:51 AM 7:50 PM
Waxing Crescent, 17% visible
Pressure 29.87 in
Visibility 10.0 miles
Clouds Clear
Heat Index 82 °F
Dew Point 58 °F
Humidity 43%
Rainfall 0.00 in
Snow Depth Not available.
UV 0 out of 12
Pollen 4.40 out of 12
Air Quality Not available.
Flu Activity Not available.
METAR KDRA 310952Z AUTO 03006KT 10SM CLR 26/08 A3004 RMK AO2 SLP115 T02610083 $

More Conditions Fewer Conditions

Pressure 29.87 in
Visibility 10.0 miles
Clouds Clear
Heat Index 82 °F
Dew Point 58 °F
Humidity 43%
Rainfall 0.00 in
Snow Depth Not available.
UV 0 out of 12
Pollen 4.40 out of 12
Air Quality Not available.
Flu Activity Not available.
METAR KDRA 310952Z AUTO 03006KT 10SM CLR 26/08 A3004 RMK AO2 SLP115 T02610083 $

More Conditions Fewer Conditions

10-Day Weather Forecast

Almanac

Astronomy

Jul. 31, 2014 Rise Set
Actual Time 5:51 AM PDT 7:50 PM PDT
Civil Twilight 5:23 AM PDT 8:18 PM PDT
Nautical Twilight 4:49 AM PDT 8:53 PM PDT
Astronomical Twilight 4:12 AM PDT 9:30 PM PDT
Moon 10:13 AM PDT 10:16 PM PDT
Length of Visible Light 14h 55m
Length of Day
13h 58m
Tomorrow will be 1m 42s shorter.
Waxing Crescent, 17% of the Moon is Illuminated
Today
Waxing Crescent
Aug 3
First Quarter
Aug 10
Full
Aug 17
Last Quarter
Aug 25
New

Today's Extremes

State Highs State Lows

Community

WunderPhotos

Upload Photos

1,739,289 photos uploaded!

Nearby

Snow Depth

Station Depth Elevation
Leavitt Meadows 0 in 7200 ft
Leavitt Lake 0 in 9400 ft
Sonora Pass 0 in 8800 ft
Monitor Pass 0 in 8350 ft
Echo Peak 1 in 7800 ft

Earthquake Activity

City Distance Mag. Time & Date
Inyokern, California 88 miles 2.5 3:46 AM PDT
2014-07-27
Lone Pine, California 94 miles 2.5 12:36 PM PDT
2014-07-26
Minimum magnitude displayed is 2.5.

Coastal Water Temperatures

Place Temperature
No Stations Reporting

Nearby Weather Stations

Station Location Temp. Heat Index Dew Point Humidity Wind Precip. Elev Updated Type
Golden Springs Ranch #8, Pahrump, NV 82.3 °F 82 °F 58 °F 43% NNW  at  7.2 mph 0.00 in / hr 2546 ft 3:36 AM PDT Normal
Artesia, Pahrump, NV 74.4 °F 77 °F 53 °F 48% East  at  2.0 mph - / hr 2737 ft 3:26 AM PDT Normal
Front Sight Firearms Training Inst., Pahrump, NV 71.2 °F 77 °F 54 °F 54% NE  at  4.0 mph 0.00 in / hr 2818 ft 3:40 AM PDT Rapid Fire
RAWS SARATOGA SPRING CA, Shoshone, CA 86 °F 84 °F 53 °F 32% ENE  at  1 mph 0.00 in / hr 198 ft 2:34 AM PDT MADIS
RAWS HORSE THIEF SPRINGS CA, Tecopa, CA 72 °F 77 °F 44 °F 36% West  at  3 mph 0.00 in / hr 5000 ft 2:51 AM PDT MADIS

Show More Stations Show Fewer Stations